sensor_id;sensor_type;location;lat;lon;timestamp;P1;durP1;ratioP1;P2;durP2;ratioP2
8889;SDS011;4481;43.406;24.454;2023-01-04T00:00:35;19.70;;;13.70;;
8889;SDS011;4481;43.406;24.454;2023-01-04T00:03:01;21.10;;;15.13;;
8889;SDS011;4481;43.406;24.454;2023-01-04T00:05:28;25.23;;;16.97;;
8889;SDS011;4481;43.406;24.454;2023-01-04T00:07:54;29.73;;;18.37;;
8889;SDS011;4481;43.406;24.454;2023-01-04T00:10:20;27.17;;;18.53;;
8889;SDS011;4481;43.406;24.454;2023-01-04T00:12:46;26.53;;;18.10;;
8889;SDS011;4481;43.406;24.454;2023-01-04T00:15:12;21.17;;;16.47;;
8889;SDS011;4481;43.406;24.454;2023-01-04T00:17:38;21.00;;;12.80;;
8889;SDS011;4481;43.406;24.454;2023-01-04T00:20:04;16.87;;;12.47;;
8889;SDS011;4481;43.406;24.454;2023-01-04T00:22:32;16.37;;;12.60;;
8889;SDS011;4481;43.406;24.454;2023-01-04T00:24:58;18.43;;;14.00;;
8889;SDS011;4481;43.406;24.454;2023-01-04T00:27:25;23.97;;;14.27;;
8889;SDS011;4481;43.406;24.454;2023-01-04T00:29:51;18.77;;;14.07;;
8889;SDS011;4481;43.406;24.454;2023-01-04T00:32:17;19.73;;;14.23;;
8889;SDS011;4481;43.406;24.454;2023-01-04T00:34:43;17.13;;;13.47;;
8889;SDS011;4481;43.406;24.454;2023-01-04T00:37:09;19.43;;;11.70;;
8889;SDS011;4481;43.406;24.454;2023-01-04T00:39:36;16.43;;;11.60;;
8889;SDS011;4481;43.406;24.454;2023-01-04T00:42:02;14.33;;;11.17;;
8889;SDS011;4481;43.406;24.454;2023-01-04T00:44:30;16.60;;;12.37;;
8889;SDS011;4481;43.406;24.454;2023-01-04T00:46:57;18.70;;;11.97;;
8889;SDS011;4481;43.406;24.454;2023-01-04T00:49:24;15.87;;;12.60;;
8889;SDS011;4481;43.406;24.454;2023-01-04T00:51:50;16.07;;;12.23;;
8889;SDS011;4481;43.406;24.454;2023-01-04T00:54:16;14.90;;;12.83;;
8889;SDS011;4481;43.406;24.454;2023-01-04T00:56:43;15.03;;;12.07;;
8889;SDS011;4481;43.406;24.454;2023-01-04T00:59:11;17.60;;;12.70;;
8889;SDS011;4481;43.406;24.454;2023-01-04T01:01:38;16.97;;;12.77;;
8889;SDS011;4481;43.406;24.454;2023-01-04T01:04:05;16.03;;;11.97;;
8889;SDS011;4481;43.406;24.454;2023-01-04T01:06:31;16.83;;;12.70;;
8889;SDS011;4481;43.406;24.454;2023-01-04T01:08:58;15.60;;;13.13;;
8889;SDS011;4481;43.406;24.454;2023-01-04T01:11:25;20.70;;;13.43;;
8889;SDS011;4481;43.406;24.454;2023-01-04T01:13:52;23.17;;;12.97;;
8889;SDS011;4481;43.406;24.454;2023-01-04T01:16:19;16.33;;;12.53;;
8889;SDS011;4481;43.406;24.454;2023-01-04T01:18:46;15.77;;;12.53;;
8889;SDS011;4481;43.406;24.454;2023-01-04T01:21:13;16.63;;;13.20;;
8889;SDS011;4481;43.406;24.454;2023-01-04T01:23:40;20.10;;;13.13;;
8889;SDS011;4481;43.406;24.454;2023-01-04T01:26:09;18.40;;;13.33;;
8889;SDS011;4481;43.406;24.454;2023-01-04T01:28:36;16.17;;;11.90;;
8889;SDS011;4481;43.406;24.454;2023-01-04T01:31:06;16.50;;;12.73;;
8889;SDS011;4481;43.406;24.454;2023-01-04T01:33:34;17.53;;;13.37;;
8889;SDS011;4481;43.406;24.454;2023-01-04T01:36:01;18.47;;;12.10;;
8889;SDS011;4481;43.406;24.454;2023-01-04T01:38:28;14.73;;;13.00;;
8889;SDS011;4481;43.406;24.454;2023-01-04T01:40:54;16.23;;;12.83;;
8889;SDS011;4481;43.406;24.454;2023-01-04T01:43:21;19.00;;;13.23;;
8889;SDS011;4481;43.406;24.454;2023-01-04T01:45:49;14.47;;;11.60;;
8889;SDS011;4481;43.406;24.454;2023-01-04T01:48:22;19.77;;;12.40;;
8889;SDS011;4481;43.406;24.454;2023-01-04T01:50:52;17.17;;;12.53;;
8889;SDS011;4481;43.406;24.454;2023-01-04T01:53:22;13.93;;;10.63;;
8889;SDS011;4481;43.406;24.454;2023-01-04T01:55:50;12.80;;;11.30;;
8889;SDS011;4481;43.406;24.454;2023-01-04T01:58:19;14.67;;;10.93;;
8889;SDS011;4481;43.406;24.454;2023-01-04T02:00:48;14.70;;;11.40;;
8889;SDS011;4481;43.406;24.454;2023-01-04T02:03:15;14.40;;;11.77;;
8889;SDS011;4481;43.406;24.454;2023-01-04T02:05:44;16.50;;;11.97;;
8889;SDS011;4481;43.406;24.454;2023-01-04T02:08:14;12.83;;;11.17;;
8889;SDS011;4481;43.406;24.454;2023-01-04T02:10:40;19.67;;;11.50;;
8889;SDS011;4481;43.406;24.454;2023-01-04T02:13:08;16.40;;;11.77;;
8889;SDS011;4481;43.406;24.454;2023-01-04T02:18:32;16.17;;;10.37;;
8889;SDS011;4481;43.406;24.454;2023-01-04T02:21:05;14.23;;;10.53;;
8889;SDS011;4481;43.406;24.454;2023-01-04T02:23:52;16.17;;;10.43;;
8889;SDS011;4481;43.406;24.454;2023-01-04T02:29:54;18.40;;;11.37;;
8889;SDS011;4481;43.406;24.454;2023-01-04T02:32:44;12.67;;;10.33;;
8889;SDS011;4481;43.406;24.454;2023-01-04T02:35:19;18.03;;;11.33;;
8889;SDS011;4481;43.406;24.454;2023-01-04T02:37:57;13.00;;;10.57;;
8889;SDS011;4481;43.406;24.454;2023-01-04T02:40:33;14.33;;;11.17;;
8889;SDS011;4481;43.406;24.454;2023-01-04T02:43:13;15.57;;;11.30;;
8889;SDS011;4481;43.406;24.454;2023-01-04T02:46:07;13.80;;;10.60;;
8889;SDS011;4481;43.406;24.454;2023-01-04T02:48:39;14.47;;;9.20;;
8889;SDS011;4481;43.406;24.454;2023-01-04T02:51:26;13.47;;;9.57;;
8889;SDS011;4481;43.406;24.454;2023-01-04T02:53:53;13.97;;;10.60;;
8889;SDS011;4481;43.406;24.454;2023-01-04T02:56:23;15.63;;;10.07;;
8889;SDS011;4481;43.406;24.454;2023-01-04T02:59:07;12.50;;;10.67;;
8889;SDS011;4481;43.406;24.454;2023-01-04T03:01:46;15.00;;;9.87;;
8889;SDS011;4481;43.406;24.454;2023-01-04T03:04:43;13.07;;;9.67;;
8889;SDS011;4481;43.406;24.454;2023-01-04T03:07:36;12.40;;;9.97;;
8889;SDS011;4481;43.406;24.454;2023-01-04T03:10:07;15.57;;;10.37;;
8889;SDS011;4481;43.406;24.454;2023-01-04T03:12:41;12.27;;;9.63;;
8889;SDS011;4481;43.406;24.454;2023-01-04T03:15:14;12.83;;;10.30;;
8889;SDS011;4481;43.406;24.454;2023-01-04T03:17:45;15.50;;;9.40;;
8889;SDS011;4481;43.406;24.454;2023-01-04T03:20:16;17.70;;;10.10;;
8889;SDS011;4481;43.406;24.454;2023-01-04T03:22:46;20.10;;;9.97;;
8889;SDS011;4481;43.406;24.454;2023-01-04T03:25:37;13.03;;;9.63;;
8889;SDS011;4481;43.406;24.454;2023-01-04T03:28:23;15.60;;;9.60;;
8889;SDS011;4481;43.406;24.454;2023-01-04T03:31:10;12.73;;;9.87;;
8889;SDS011;4481;43.406;24.454;2023-01-04T03:33:57;13.97;;;11.03;;
8889;SDS011;4481;43.406;24.454;2023-01-04T03:36:44;14.27;;;10.20;;
8889;SDS011;4481;43.406;24.454;2023-01-04T03:39:19;13.00;;;9.83;;
8889;SDS011;4481;43.406;24.454;2023-01-04T03:42:09;10.10;;;8.77;;
8889;SDS011;4481;43.406;24.454;2023-01-04T03:45:04;12.30;;;9.80;;
8889;SDS011;4481;43.406;24.454;2023-01-04T03:47:57;12.23;;;9.20;;
8889;SDS011;4481;43.406;24.454;2023-01-04T03:50:46;16.87;;;8.77;;
8889;SDS011;4481;43.406;24.454;2023-01-04T03:53:16;13.70;;;9.57;;
8889;SDS011;4481;43.406;24.454;2023-01-04T03:55:45;13.33;;;9.53;;
8889;SDS011;4481;43.406;24.454;2023-01-04T03:58:13;13.33;;;10.10;;
8889;SDS011;4481;43.406;24.454;2023-01-04T04:00:39;14.53;;;9.53;;
8889;SDS011;4481;43.406;24.454;2023-01-04T04:03:06;12.47;;;9.97;;
8889;SDS011;4481;43.406;24.454;2023-01-04T04:05:33;11.93;;;9.33;;
8889;SDS011;4481;43.406;24.454;2023-01-04T04:08:21;14.37;;;9.50;;
8889;SDS011;4481;43.406;24.454;2023-01-04T04:10:52;13.23;;;8.93;;
8889;SDS011;4481;43.406;24.454;2023-01-04T04:13:19;10.83;;;8.63;;
8889;SDS011;4481;43.406;24.454;2023-01-04T04:15:45;17.97;;;10.40;;
8889;SDS011;4481;43.406;24.454;2023-01-04T04:18:11;14.57;;;9.33;;
8889;SDS011;4481;43.406;24.454;2023-01-04T04:20:37;17.50;;;10.57;;
8889;SDS011;4481;43.406;24.454;2023-01-04T04:23:03;14.47;;;10.10;;
8889;SDS011;4481;43.406;24.454;2023-01-04T04:25:30;14.20;;;10.80;;
8889;SDS011;4481;43.406;24.454;2023-01-04T04:27:56;12.07;;;9.67;;
8889;SDS011;4481;43.406;24.454;2023-01-04T04:30:22;13.27;;;9.97;;
8889;SDS011;4481;43.406;24.454;2023-01-04T04:32:48;12.97;;;10.10;;
8889;SDS011;4481;43.406;24.454;2023-01-04T04:35:14;16.47;;;12.03;;
8889;SDS011;4481;43.406;24.454;2023-01-04T04:37:41;12.77;;;10.67;;
8889;SDS011;4481;43.406;24.454;2023-01-04T04:40:07;16.27;;;11.77;;
8889;SDS011;4481;43.406;24.454;2023-01-04T04:42:55;14.13;;;10.33;;
8889;SDS011;4481;43.406;24.454;2023-01-04T04:45:21;13.80;;;10.87;;
8889;SDS011;4481;43.406;24.454;2023-01-04T04:47:47;15.13;;;10.90;;
8889;SDS011;4481;43.406;24.454;2023-01-04T04:50:13;12.57;;;10.87;;
8889;SDS011;4481;43.406;24.454;2023-01-04T04:52:39;15.87;;;11.20;;
8889;SDS011;4481;43.406;24.454;2023-01-04T04:55:06;15.50;;;11.40;;
8889;SDS011;4481;43.406;24.454;2023-01-04T04:57:32;16.43;;;12.60;;
8889;SDS011;4481;43.406;24.454;2023-01-04T04:59:59;14.80;;;12.07;;
8889;SDS011;4481;43.406;24.454;2023-01-04T05:02:25;20.43;;;13.50;;
8889;SDS011;4481;43.406;24.454;2023-01-04T05:04:51;22.23;;;13.97;;
8889;SDS011;4481;43.406;24.454;2023-01-04T05:07:17;16.47;;;12.43;;
8889;SDS011;4481;43.406;24.454;2023-01-04T05:09:44;20.83;;;13.50;;
8889;SDS011;4481;43.406;24.454;2023-01-04T05:12:10;22.20;;;13.77;;
8889;SDS011;4481;43.406;24.454;2023-01-04T05:14:55;21.00;;;14.27;;
8889;SDS011;4481;43.406;24.454;2023-01-04T05:17:22;22.37;;;14.57;;
8889;SDS011;4481;43.406;24.454;2023-01-04T05:19:48;19.53;;;14.23;;
8889;SDS011;4481;43.406;24.454;2023-01-04T05:22:14;20.03;;;13.87;;
8889;SDS011;4481;43.406;24.454;2023-01-04T05:24:40;17.97;;;14.97;;
8889;SDS011;4481;43.406;24.454;2023-01-04T05:27:06;21.60;;;16.03;;
8889;SDS011;4481;43.406;24.454;2023-01-04T05:29:32;22.40;;;16.97;;
8889;SDS011;4481;43.406;24.454;2023-01-04T05:32:16;22.40;;;15.93;;
8889;SDS011;4481;43.406;24.454;2023-01-04T05:34:44;26.07;;;18.80;;
8889;SDS011;4481;43.406;24.454;2023-01-04T05:37:10;23.60;;;18.13;;
8889;SDS011;4481;43.406;24.454;2023-01-04T05:39:36;24.27;;;18.43;;
8889;SDS011;4481;43.406;24.454;2023-01-04T05:42:02;29.17;;;17.93;;
8889;SDS011;4481;43.406;24.454;2023-01-04T05:44:47;26.47;;;17.43;;
8889;SDS011;4481;43.406;24.454;2023-01-04T05:47:13;25.77;;;18.47;;
8889;SDS011;4481;43.406;24.454;2023-01-04T05:49:39;27.23;;;17.70;;
8889;SDS011;4481;43.406;24.454;2023-01-04T05:52:06;29.97;;;19.33;;
8889;SDS011;4481;43.406;24.454;2023-01-04T05:54:32;25.73;;;19.20;;
8889;SDS011;4481;43.406;24.454;2023-01-04T05:56:58;25.27;;;18.00;;
8889;SDS011;4481;43.406;24.454;2023-01-04T05:59:24;25.47;;;17.67;;
8889;SDS011;4481;43.406;24.454;2023-01-04T06:01:51;24.97;;;17.93;;
8889;SDS011;4481;43.406;24.454;2023-01-04T06:04:18;25.07;;;17.83;;
8889;SDS011;4481;43.406;24.454;2023-01-04T06:06:45;27.13;;;17.60;;
8889;SDS011;4481;43.406;24.454;2023-01-04T06:09:12;26.50;;;18.53;;
8889;SDS011;4481;43.406;24.454;2023-01-04T06:11:38;30.57;;;19.83;;
8889;SDS011;4481;43.406;24.454;2023-01-04T06:14:04;28.73;;;21.03;;
8889;SDS011;4481;43.406;24.454;2023-01-04T06:16:30;35.37;;;21.10;;
8889;SDS011;4481;43.406;24.454;2023-01-04T06:18:59;32.60;;;22.13;;
8889;SDS011;4481;43.406;24.454;2023-01-04T06:21:25;32.07;;;21.83;;
8889;SDS011;4481;43.406;24.454;2023-01-04T06:23:51;31.27;;;22.03;;
8889;SDS011;4481;43.406;24.454;2023-01-04T06:26:18;34.17;;;23.77;;
8889;SDS011;4481;43.406;24.454;2023-01-04T06:28:45;34.17;;;24.83;;
8889;SDS011;4481;43.406;24.454;2023-01-04T06:31:11;33.80;;;24.20;;
8889;SDS011;4481;43.406;24.454;2023-01-04T06:33:38;38.10;;;26.00;;
8889;SDS011;4481;43.406;24.454;2023-01-04T06:36:05;38.10;;;26.33;;
8889;SDS011;4481;43.406;24.454;2023-01-04T06:38:32;39.30;;;26.43;;
8889;SDS011;4481;43.406;24.454;2023-01-04T06:41:00;35.83;;;26.20;;
8889;SDS011;4481;43.406;24.454;2023-01-04T06:43:27;35.97;;;26.53;;
8889;SDS011;4481;43.406;24.454;2023-01-04T06:45:53;36.87;;;27.33;;
8889;SDS011;4481;43.406;24.454;2023-01-04T06:48:20;35.57;;;25.93;;
8889;SDS011;4481;43.406;24.454;2023-01-04T06:50:46;37.20;;;25.33;;
8889;SDS011;4481;43.406;24.454;2023-01-04T06:53:12;36.47;;;26.83;;
8889;SDS011;4481;43.406;24.454;2023-01-04T06:55:38;34.60;;;26.47;;
8889;SDS011;4481;43.406;24.454;2023-01-04T06:58:06;40.90;;;26.80;;
8889;SDS011;4481;43.406;24.454;2023-01-04T07:00:32;39.80;;;27.57;;
8889;SDS011;4481;43.406;24.454;2023-01-04T07:02:58;35.97;;;26.77;;
8889;SDS011;4481;43.406;24.454;2023-01-04T07:05:25;37.37;;;26.47;;
8889;SDS011;4481;43.406;24.454;2023-01-04T07:07:51;43.10;;;28.80;;
8889;SDS011;4481;43.406;24.454;2023-01-04T07:10:17;35.57;;;27.50;;
8889;SDS011;4481;43.406;24.454;2023-01-04T07:12:43;37.60;;;26.87;;
8889;SDS011;4481;43.406;24.454;2023-01-04T07:15:10;39.33;;;28.33;;
8889;SDS011;4481;43.406;24.454;2023-01-04T07:17:37;44.20;;;28.17;;
8889;SDS011;4481;43.406;24.454;2023-01-04T07:20:04;42.77;;;28.50;;
8889;SDS011;4481;43.406;24.454;2023-01-04T07:22:30;38.27;;;27.13;;
8889;SDS011;4481;43.406;24.454;2023-01-04T07:24:56;38.87;;;28.57;;
8889;SDS011;4481;43.406;24.454;2023-01-04T07:27:22;39.63;;;28.43;;
8889;SDS011;4481;43.406;24.454;2023-01-04T07:29:49;38.27;;;27.90;;
8889;SDS011;4481;43.406;24.454;2023-01-04T07:32:15;40.23;;;27.77;;
8889;SDS011;4481;43.406;24.454;2023-01-04T07:34:42;43.00;;;29.20;;
8889;SDS011;4481;43.406;24.454;2023-01-04T07:37:08;39.47;;;28.23;;
8889;SDS011;4481;43.406;24.454;2023-01-04T07:39:34;39.80;;;29.23;;
8889;SDS011;4481;43.406;24.454;2023-01-04T07:42:00;47.57;;;29.43;;
8889;SDS011;4481;43.406;24.454;2023-01-04T07:44:26;41.70;;;28.87;;
8889;SDS011;4481;43.406;24.454;2023-01-04T07:46:53;38.03;;;28.27;;
8889;SDS011;4481;43.406;24.454;2023-01-04T07:49:19;37.40;;;29.10;;
8889;SDS011;4481;43.406;24.454;2023-01-04T07:51:46;39.57;;;29.00;;
8889;SDS011;4481;43.406;24.454;2023-01-04T07:54:13;40.50;;;27.73;;
8889;SDS011;4481;43.406;24.454;2023-01-04T07:56:40;42.23;;;28.40;;
8889;SDS011;4481;43.406;24.454;2023-01-04T07:59:06;42.00;;;29.10;;
8889;SDS011;4481;43.406;24.454;2023-01-04T08:01:33;38.20;;;28.33;;
8889;SDS011;4481;43.406;24.454;2023-01-04T08:04:01;40.23;;;29.10;;
8889;SDS011;4481;43.406;24.454;2023-01-04T08:06:28;36.00;;;27.63;;
8889;SDS011;4481;43.406;24.454;2023-01-04T08:08:55;46.83;;;30.67;;
8889;SDS011;4481;43.406;24.454;2023-01-04T08:11:22;43.80;;;30.73;;
8889;SDS011;4481;43.406;24.454;2023-01-04T08:13:48;41.63;;;28.90;;
8889;SDS011;4481;43.406;24.454;2023-01-04T08:16:17;46.20;;;29.80;;
8889;SDS011;4481;43.406;24.454;2023-01-04T08:18:46;43.13;;;30.40;;
8889;SDS011;4481;43.406;24.454;2023-01-04T08:21:15;43.13;;;30.60;;
8889;SDS011;4481;43.406;24.454;2023-01-04T08:23:41;53.90;;;31.37;;
8889;SDS011;4481;43.406;24.454;2023-01-04T08:26:10;44.90;;;30.33;;
8889;SDS011;4481;43.406;24.454;2023-01-04T08:28:39;43.93;;;28.70;;
8889;SDS011;4481;43.406;24.454;2023-01-04T08:31:07;41.90;;;28.93;;
8889;SDS011;4481;43.406;24.454;2023-01-04T08:33:35;45.90;;;29.93;;
8889;SDS011;4481;43.406;24.454;2023-01-04T08:36:06;45.20;;;29.57;;
8889;SDS011;4481;43.406;24.454;2023-01-04T08:38:33;49.30;;;30.67;;
8889;SDS011;4481;43.406;24.454;2023-01-04T08:40:59;43.57;;;31.57;;
8889;SDS011;4481;43.406;24.454;2023-01-04T08:43:31;45.80;;;31.80;;
8889;SDS011;4481;43.406;24.454;2023-01-04T08:45:59;46.50;;;31.80;;
8889;SDS011;4481;43.406;24.454;2023-01-04T08:48:26;43.67;;;29.93;;
8889;SDS011;4481;43.406;24.454;2023-01-04T08:50:52;46.10;;;28.97;;
8889;SDS011;4481;43.406;24.454;2023-01-04T08:53:18;40.93;;;29.50;;
8889;SDS011;4481;43.406;24.454;2023-01-04T08:55:50;42.03;;;28.07;;
8889;SDS011;4481;43.406;24.454;2023-01-04T08:58:17;39.20;;;26.20;;
8889;SDS011;4481;43.406;24.454;2023-01-04T09:00:44;39.03;;;25.37;;
8889;SDS011;4481;43.406;24.454;2023-01-04T09:03:10;36.63;;;25.43;;
8889;SDS011;4481;43.406;24.454;2023-01-04T09:05:37;37.73;;;24.83;;
8889;SDS011;4481;43.406;24.454;2023-01-04T09:08:03;32.00;;;23.97;;
8889;SDS011;4481;43.406;24.454;2023-01-04T09:10:29;31.63;;;24.10;;
8889;SDS011;4481;43.406;24.454;2023-01-04T09:12:56;30.23;;;23.00;;
8889;SDS011;4481;43.406;24.454;2023-01-04T09:15:22;27.83;;;20.93;;
8889;SDS011;4481;43.406;24.454;2023-01-04T09:17:49;26.73;;;20.80;;
8889;SDS011;4481;43.406;24.454;2023-01-04T09:20:16;27.27;;;20.73;;
8889;SDS011;4481;43.406;24.454;2023-01-04T09:22:42;25.03;;;20.07;;
8889;SDS011;4481;43.406;24.454;2023-01-04T09:25:08;26.60;;;20.40;;
8889;SDS011;4481;43.406;24.454;2023-01-04T09:27:34;26.67;;;19.77;;
8889;SDS011;4481;43.406;24.454;2023-01-04T09:30:00;28.50;;;20.23;;
8889;SDS011;4481;43.406;24.454;2023-01-04T09:32:28;26.60;;;19.67;;
8889;SDS011;4481;43.406;24.454;2023-01-04T09:34:55;29.10;;;21.20;;
8889;SDS011;4481;43.406;24.454;2023-01-04T09:37:21;30.40;;;21.53;;
8889;SDS011;4481;43.406;24.454;2023-01-04T09:39:48;29.30;;;20.77;;
8889;SDS011;4481;43.406;24.454;2023-01-04T09:42:15;28.63;;;21.13;;
8889;SDS011;4481;43.406;24.454;2023-01-04T09:44:48;34.27;;;22.43;;
8889;SDS011;4481;43.406;24.454;2023-01-04T09:47:16;38.93;;;22.77;;
8889;SDS011;4481;43.406;24.454;2023-01-04T09:49:49;27.80;;;21.43;;
8889;SDS011;4481;43.406;24.454;2023-01-04T09:52:21;30.03;;;21.37;;
8889;SDS011;4481;43.406;24.454;2023-01-04T09:54:50;28.23;;;20.70;;
8889;SDS011;4481;43.406;24.454;2023-01-04T09:57:20;30.43;;;21.67;;
8889;SDS011;4481;43.406;24.454;2023-01-04T09:59:50;27.23;;;21.53;;
8889;SDS011;4481;43.406;24.454;2023-01-04T10:02:21;33.60;;;20.80;;
8889;SDS011;4481;43.406;24.454;2023-01-04T10:04:53;31.40;;;21.27;;
8889;SDS011;4481;43.406;24.454;2023-01-04T10:07:24;28.77;;;22.47;;
8889;SDS011;4481;43.406;24.454;2023-01-04T10:09:53;24.63;;;19.87;;
8889;SDS011;4481;43.406;24.454;2023-01-04T10:12:28;26.20;;;19.20;;
8889;SDS011;4481;43.406;24.454;2023-01-04T10:15:12;25.83;;;18.27;;
8889;SDS011;4481;43.406;24.454;2023-01-04T10:17:47;28.73;;;20.33;;
8889;SDS011;4481;43.406;24.454;2023-01-04T10:20:34;27.53;;;18.27;;
8889;SDS011;4481;43.406;24.454;2023-01-04T10:23:19;24.77;;;18.10;;
8889;SDS011;4481;43.406;24.454;2023-01-04T10:25:57;28.37;;;20.07;;
8889;SDS011;4481;43.406;24.454;2023-01-04T10:28:36;30.97;;;20.17;;
8889;SDS011;4481;43.406;24.454;2023-01-04T10:31:11;26.53;;;19.60;;
8889;SDS011;4481;43.406;24.454;2023-01-04T10:33:46;28.60;;;20.30;;
8889;SDS011;4481;43.406;24.454;2023-01-04T10:36:16;27.23;;;21.40;;
8889;SDS011;4481;43.406;24.454;2023-01-04T10:38:46;33.60;;;22.90;;
8889;SDS011;4481;43.406;24.454;2023-01-04T10:41:20;37.67;;;24.63;;
8889;SDS011;4481;43.406;24.454;2023-01-04T10:43:54;50.13;;;30.33;;
8889;SDS011;4481;43.406;24.454;2023-01-04T10:46:28;62.83;;;35.97;;
8889;SDS011;4481;43.406;24.454;2023-01-04T10:48:59;52.73;;;38.63;;
8889;SDS011;4481;43.406;24.454;2023-01-04T10:51:32;54.13;;;36.23;;
8889;SDS011;4481;43.406;24.454;2023-01-04T10:54:07;59.43;;;39.70;;
8889;SDS011;4481;43.406;24.454;2023-01-04T10:56:43;65.67;;;44.83;;
8889;SDS011;4481;43.406;24.454;2023-01-04T10:59:17;68.93;;;44.27;;
8889;SDS011;4481;43.406;24.454;2023-01-04T11:01:48;75.27;;;44.83;;
8889;SDS011;4481;43.406;24.454;2023-01-04T11:04:18;70.83;;;44.27;;
8889;SDS011;4481;43.406;24.454;2023-01-04T11:06:50;73.93;;;45.67;;
8889;SDS011;4481;43.406;24.454;2023-01-04T11:09:21;81.00;;;48.00;;
8889;SDS011;4481;43.406;24.454;2023-01-04T11:11:50;78.67;;;48.30;;
8889;SDS011;4481;43.406;24.454;2023-01-04T11:14:19;86.03;;;47.07;;
8889;SDS011;4481;43.406;24.454;2023-01-04T11:16:48;81.17;;;47.40;;
8889;SDS011;4481;43.406;24.454;2023-01-04T11:19:16;79.10;;;46.07;;
8889;SDS011;4481;43.406;24.454;2023-01-04T11:21:44;74.50;;;45.67;;
8889;SDS011;4481;43.406;24.454;2023-01-04T11:24:15;77.33;;;44.80;;
8889;SDS011;4481;43.406;24.454;2023-01-04T11:26:47;71.80;;;43.97;;
8889;SDS011;4481;43.406;24.454;2023-01-04T11:29:20;82.43;;;46.03;;
8889;SDS011;4481;43.406;24.454;2023-01-04T11:31:55;80.90;;;47.77;;
8889;SDS011;4481;43.406;24.454;2023-01-04T11:37:21;89.07;;;50.77;;
8889;SDS011;4481;43.406;24.454;2023-01-04T11:40:10;84.53;;;49.83;;
8889;SDS011;4481;43.406;24.454;2023-01-04T11:42:43;95.33;;;48.67;;
8889;SDS011;4481;43.406;24.454;2023-01-04T11:45:15;84.20;;;51.33;;
8889;SDS011;4481;43.406;24.454;2023-01-04T11:47:47;86.83;;;47.13;;
8889;SDS011;4481;43.406;24.454;2023-01-04T11:53:24;81.93;;;44.77;;
8889;SDS011;4481;43.406;24.454;2023-01-04T11:56:06;94.50;;;48.70;;
8889;SDS011;4481;43.406;24.454;2023-01-04T11:58:43;95.77;;;48.47;;
8889;SDS011;4481;43.406;24.454;2023-01-04T12:01:20;90.53;;;47.33;;
8889;SDS011;4481;43.406;24.454;2023-01-04T12:03:47;81.73;;;47.10;;
8889;SDS011;4481;43.406;24.454;2023-01-04T12:06:15;95.77;;;49.20;;
8889;SDS011;4481;43.406;24.454;2023-01-04T12:08:43;93.90;;;48.93;;
8889;SDS011;4481;43.406;24.454;2023-01-04T12:11:13;104.27;;;50.07;;
8889;SDS011;4481;43.406;24.454;2023-01-04T12:13:45;104.30;;;54.17;;
8889;SDS011;4481;43.406;24.454;2023-01-04T12:16:14;191.63;;;102.90;;
8889;SDS011;4481;43.406;24.454;2023-01-04T12:18:50;111.60;;;60.33;;
8889;SDS011;4481;43.406;24.454;2023-01-04T12:21:18;92.70;;;52.47;;
8889;SDS011;4481;43.406;24.454;2023-01-04T12:23:46;81.10;;;41.97;;
8889;SDS011;4481;43.406;24.454;2023-01-04T12:26:14;83.60;;;43.87;;
8889;SDS011;4481;43.406;24.454;2023-01-04T12:28:42;68.90;;;38.60;;
8889;SDS011;4481;43.406;24.454;2023-01-04T12:31:26;76.37;;;38.30;;
8889;SDS011;4481;43.406;24.454;2023-01-04T12:33:57;75.73;;;38.87;;
8889;SDS011;4481;43.406;24.454;2023-01-04T12:39:37;65.07;;;35.53;;
8889;SDS011;4481;43.406;24.454;2023-01-04T12:42:08;61.87;;;35.13;;
8889;SDS011;4481;43.406;24.454;2023-01-04T12:47:47;61.73;;;34.93;;
8889;SDS011;4481;43.406;24.454;2023-01-04T12:50:33;68.73;;;36.87;;
8889;SDS011;4481;43.406;24.454;2023-01-04T12:53:55;66.27;;;34.43;;
8889;SDS011;4481;43.406;24.454;2023-01-04T12:56:37;56.37;;;32.33;;
8889;SDS011;4481;43.406;24.454;2023-01-04T12:59:51;65.07;;;34.63;;
8889;SDS011;4481;43.406;24.454;2023-01-04T13:02:19;58.77;;;33.80;;
8889;SDS011;4481;43.406;24.454;2023-01-04T13:04:48;54.90;;;31.67;;
8889;SDS011;4481;43.406;24.454;2023-01-04T13:07:20;71.67;;;35.13;;
8889;SDS011;4481;43.406;24.454;2023-01-04T13:09:55;74.53;;;37.37;;
8889;SDS011;4481;43.406;24.454;2023-01-04T13:15:13;67.73;;;34.93;;
8889;SDS011;4481;43.406;24.454;2023-01-04T13:17:45;71.53;;;36.93;;
8889;SDS011;4481;43.406;24.454;2023-01-04T13:20:13;71.40;;;37.57;;
8889;SDS011;4481;43.406;24.454;2023-01-04T13:22:44;70.90;;;39.53;;
8889;SDS011;4481;43.406;24.454;2023-01-04T13:25:14;70.63;;;35.93;;
8889;SDS011;4481;43.406;24.454;2023-01-04T13:27:53;74.40;;;38.20;;
8889;SDS011;4481;43.406;24.454;2023-01-04T13:30:32;87.20;;;39.40;;
8889;SDS011;4481;43.406;24.454;2023-01-04T13:33:06;78.73;;;37.83;;
8889;SDS011;4481;43.406;24.454;2023-01-04T13:35:34;74.67;;;37.63;;
8889;SDS011;4481;43.406;24.454;2023-01-04T13:38:00;70.57;;;36.93;;
8889;SDS011;4481;43.406;24.454;2023-01-04T13:40:28;75.47;;;40.03;;
8889;SDS011;4481;43.406;24.454;2023-01-04T13:43:10;71.97;;;39.80;;
8889;SDS011;4481;43.406;24.454;2023-01-04T13:45:58;77.47;;;39.23;;
8889;SDS011;4481;43.406;24.454;2023-01-04T13:48:36;72.83;;;38.17;;
8889;SDS011;4481;43.406;24.454;2023-01-04T13:51:05;64.93;;;38.13;;
8889;SDS011;4481;43.406;24.454;2023-01-04T13:53:39;80.17;;;37.23;;
8889;SDS011;4481;43.406;24.454;2023-01-04T13:56:13;87.50;;;39.53;;
8889;SDS011;4481;43.406;24.454;2023-01-04T13:58:43;71.13;;;39.83;;
8889;SDS011;4481;43.406;24.454;2023-01-04T14:01:11;82.97;;;40.17;;
8889;SDS011;4481;43.406;24.454;2023-01-04T14:03:42;81.97;;;40.53;;
8889;SDS011;4481;43.406;24.454;2023-01-04T14:06:16;78.20;;;40.13;;
8889;SDS011;4481;43.406;24.454;2023-01-04T14:08:48;68.93;;;39.77;;
8889;SDS011;4481;43.406;24.454;2023-01-04T14:11:24;79.13;;;41.00;;
8889;SDS011;4481;43.406;24.454;2023-01-04T14:14:14;84.43;;;39.47;;
8889;SDS011;4481;43.406;24.454;2023-01-04T14:17:03;73.00;;;39.37;;
8889;SDS011;4481;43.406;24.454;2023-01-04T14:19:44;84.93;;;41.93;;
8889;SDS011;4481;43.406;24.454;2023-01-04T14:22:25;75.87;;;40.70;;
8889;SDS011;4481;43.406;24.454;2023-01-04T14:24:54;74.00;;;42.40;;
8889;SDS011;4481;43.406;24.454;2023-01-04T14:27:31;86.53;;;41.73;;
8889;SDS011;4481;43.406;24.454;2023-01-04T14:29:59;73.47;;;40.53;;
8889;SDS011;4481;43.406;24.454;2023-01-04T14:32:25;81.10;;;41.90;;
8889;SDS011;4481;43.406;24.454;2023-01-04T14:34:51;84.93;;;41.20;;
8889;SDS011;4481;43.406;24.454;2023-01-04T14:37:19;103.13;;;44.73;;
8889;SDS011;4481;43.406;24.454;2023-01-04T14:39:45;95.67;;;44.43;;
8889;SDS011;4481;43.406;24.454;2023-01-04T14:42:22;100.50;;;44.20;;
8889;SDS011;4481;43.406;24.454;2023-01-04T14:44:49;91.67;;;45.50;;
8889;SDS011;4481;43.406;24.454;2023-01-04T14:47:15;96.87;;;44.83;;
8889;SDS011;4481;43.406;24.454;2023-01-04T14:49:42;100.53;;;45.87;;
8889;SDS011;4481;43.406;24.454;2023-01-04T14:52:08;99.13;;;44.17;;
8889;SDS011;4481;43.406;24.454;2023-01-04T14:54:36;96.33;;;45.67;;
8889;SDS011;4481;43.406;24.454;2023-01-04T14:57:04;95.80;;;46.40;;
8889;SDS011;4481;43.406;24.454;2023-01-04T14:59:30;97.63;;;46.63;;
8889;SDS011;4481;43.406;24.454;2023-01-04T15:01:56;103.87;;;47.47;;
8889;SDS011;4481;43.406;24.454;2023-01-04T15:04:23;104.63;;;49.03;;
8889;SDS011;4481;43.406;24.454;2023-01-04T15:06:49;116.73;;;49.17;;
8889;SDS011;4481;43.406;24.454;2023-01-04T15:09:17;102.43;;;48.83;;
8889;SDS011;4481;43.406;24.454;2023-01-04T15:11:44;104.47;;;47.43;;
8889;SDS011;4481;43.406;24.454;2023-01-04T15:14:10;98.33;;;48.00;;
8889;SDS011;4481;43.406;24.454;2023-01-04T15:16:37;117.70;;;51.07;;